Time;durP1;ratioP1;P1;durP2;ratioP2;P2;SDS_P1;SDS_P2;PMS_P1;PMS_P2;Temp;Humidity;BMP_temperature;BMP_pressure;BME280_temperature;BME280_humidity;BME280_pressure;Samples;Min_cycle;Max_cycle;Signal;HPM_P1;HPM_P2
2021/04/06 00:02:14;;;;;;;1.80;1.10;;;4.90;1.00;;;;;;5043145;28;20231;-77
2021/04/06 00:04:47;;;;;;;2.63;1.60;;;4.50;1.00;;;;;;5047448;28;20534;-78
2021/04/06 00:07:18;;;;;;;1.55;1.30;;;4.50;1.00;;;;;;5051723;28;20604;-80
2021/04/06 00:09:50;;;;;;;2.45;0.80;;;4.60;1.00;;;;;;5058220;28;20209;-78
2021/04/06 00:12:19;;;;;;;1.58;1.15;;;4.40;1.00;;;;;;5050896;28;20241;-78
2021/04/06 00:14:48;;;;;;;2.80;1.33;;;4.20;1.00;;;;;;5053050;28;20235;-78
2021/04/06 00:17:17;;;;;;;1.73;0.90;;;4.30;1.00;;;;;;5052282;28;20480;-79
2021/04/06 00:19:47;;;;;;;1.02;0.93;;;4.20;1.00;;;;;;5050437;28;20973;-78
2021/04/06 00:22:17;;;;;;;3.55;1.27;;;4.00;1.00;;;;;;5044669;28;20272;-77
2021/04/06 00:24:49;;;;;;;1.52;1.10;;;4.10;1.00;;;;;;5042869;28;20630;-78
2021/04/06 00:27:18;;;;;;;4.50;1.00;;;4.40;1.00;;;;;;5046630;28;20208;-78
2021/04/06 00:29:49;;;;;;;2.85;1.10;;;4.50;1.00;;;;;;5040620;28;20211;-77
2021/04/06 00:32:19;;;;;;;4.40;1.00;;;4.50;1.00;;;;;;5046237;28;21123;-79
2021/04/06 00:34:51;;;;;;;1.10;1.00;;;4.40;1.00;;;;;;5042414;28;20218;-78
2021/04/06 00:37:18;;;;;;;1.33;0.90;;;4.50;1.00;;;;;;5049756;28;20280;-79
2021/04/06 00:39:47;;;;;;;2.10;1.10;;;4.40;1.00;;;;;;5048286;28;20746;-79
2021/04/06 00:42:17;;;;;;;4.90;1.00;;;4.50;1.00;;;;;;5042700;28;20250;-77
2021/04/06 00:44:48;;;;;;;1.83;1.10;;;4.60;1.00;;;;;;5042123;28;20453;-78
2021/04/06 00:47:23;;;;;;;2.60;1.00;;;4.50;1.00;;;;;;5042937;28;20481;-74
2021/04/06 00:49:53;;;;;;;1.88;1.05;;;4.50;1.00;;;;;;5039267;28;20276;-78
2021/04/06 00:52:21;;;;;;;2.55;1.23;;;4.30;1.00;;;;;;5042927;28;20246;-79
2021/04/06 00:54:52;;;;;;;1.17;1.00;;;4.20;1.00;;;;;;5045841;28;20232;-77
2021/04/06 00:57:23;;;;;;;1.48;1.00;;;4.00;1.00;;;;;;5054100;28;20762;-77
2021/04/06 01:00:11;;;;;;;3.83;1.17;;;4.00;1.00;;;;;;5041031;28;20216;-77
2021/04/06 01:02:38;;;;;;;2.38;1.00;;;3.90;1.00;;;;;;5045286;28;20990;-78
2021/04/06 01:05:08;;;;;;;1.20;1.10;;;4.10;1.00;;;;;;5039893;28;20276;-78
2021/04/06 01:07:37;;;;;;;2.73;1.43;;;4.10;1.00;;;;;;5053644;28;20632;-79
2021/04/06 01:10:06;;;;;;;1.90;1.13;;;4.10;1.00;;;;;;5043369;28;20471;-78
2021/04/06 01:12:34;;;;;;;3.08;1.10;;;4.20;1.00;;;;;;5044546;28;20232;-77
2021/04/06 01:15:02;;;;;;;1.85;0.90;;;4.30;1.00;;;;;;5038734;28;21022;-79
2021/04/06 01:17:32;;;;;;;3.00;1.20;;;4.40;1.00;;;;;;5045156;28;20293;-76
2021/04/06 01:20:05;;;;;;;2.10;0.95;;;4.40;1.00;;;;;;5043984;28;20740;-79
2021/04/06 01:22:34;;;;;;;1.20;0.93;;;4.20;1.00;;;;;;5047006;28;20777;-76
2021/04/06 01:25:03;;;;;;;3.13;1.20;;;4.30;1.00;;;;;;5046029;28;20213;-79
2021/04/06 01:27:31;;;;;;;1.17;1.08;;;4.00;1.00;;;;;;5044369;28;20684;-80
2021/04/06 01:29:58;;;;;;;1.20;1.10;;;4.10;1.00;;;;;;5046385;28;20618;-78
2021/04/06 01:32:28;;;;;;;3.78;1.20;;;4.00;1.00;;;;;;5046209;28;20244;-78
2021/04/06 01:34:56;;;;;;;1.42;1.20;;;4.00;1.00;;;;;;5053042;28;20212;-77
2021/04/06 01:37:25;;;;;;;1.80;1.20;;;3.90;1.00;;;;;;5055983;28;20210;-78
2021/04/06 01:39:57;;;;;;;2.75;1.10;;;3.90;1.00;;;;;;5059474;28;20218;-79
2021/04/06 01:42:28;;;;;;;4.45;1.50;;;3.90;1.00;;;;;;5055915;28;20249;-78
2021/04/06 01:44:57;;;;;;;2.05;1.10;;;4.10;1.00;;;;;;5046468;28;20199;-78
2021/04/06 01:47:26;;;;;;;2.75;0.90;;;3.80;1.00;;;;;;5046306;28;20807;-80
2021/04/06 01:49:54;;;;;;;1.00;0.90;;;3.90;1.00;;;;;;5050049;28;20218;-80
2021/04/06 01:52:25;;;;;;;1.77;1.15;;;3.70;1.00;;;;;;5045211;28;20231;-79
2021/04/06 01:54:56;;;;;;;5.57;1.10;;;3.60;1.00;;;;;;5049610;28;20212;-79
2021/04/06 01:57:29;;;;;;;1.58;1.10;;;3.40;1.00;;;;;;5048506;28;20810;-79
2021/04/06 02:00:06;;;;;;;2.15;1.00;;;3.60;1.00;;;;;;5049116;28;20219;-77
2021/04/06 02:02:37;;;;;;;2.92;1.10;;;3.50;1.00;;;;;;5045530;28;20236;-78
2021/04/06 02:05:09;;;;;;;1.05;0.90;;;3.60;1.00;;;;;;5050298;28;20212;-79
2021/04/06 02:07:43;;;;;;;3.05;0.90;;;3.40;1.00;;;;;;5047379;28;20221;-78
2021/04/06 02:10:12;;;;;;;1.02;0.80;;;3.10;1.00;;;;;;5061540;28;20218;-77
2021/04/06 02:12:40;;;;;;;1.17;1.00;;;2.60;1.00;;;;;;5049152;28;20257;-79
2021/04/06 02:15:11;;;;;;;4.10;1.50;;;2.40;1.00;;;;;;5045649;28;20271;-76
2021/04/06 02:17:49;;;;;;;2.67;1.30;;;2.90;1.00;;;;;;5046200;28;20795;-79
2021/04/06 02:20:21;;;;;;;3.22;1.00;;;2.90;1.00;;;;;;5042873;28;20253;-75
2021/04/06 02:22:55;;;;;;;3.13;1.15;;;2.90;1.00;;;;;;5041523;28;22276;-79
2021/04/06 02:25:23;;;;;;;2.75;0.90;;;2.90;1.00;;;;;;5049228;28;20215;-79
2021/04/06 02:27:51;;;;;;;5.30;0.95;;;3.00;1.00;;;;;;5040143;28;20403;-77
2021/04/06 02:30:19;;;;;;;1.42;0.90;;;2.80;1.00;;;;;;5051972;28;21193;-77
2021/04/06 02:32:46;;;;;;;3.80;0.90;;;2.90;1.00;;;;;;5046754;28;20232;-79
2021/04/06 02:35:14;;;;;;;1.02;0.80;;;3.10;1.00;;;;;;5059052;28;20224;-79
2021/04/06 02:37:43;;;;;;;2.90;0.95;;;3.00;1.00;;;;;;5052770;28;20224;-77
2021/04/06 02:40:14;;;;;;;1.77;0.90;;;3.00;1.00;;;;;;5054428;28;20232;-78
2021/04/06 02:42:42;;;;;;;0.80;0.80;;;2.90;1.00;;;;;;5055195;28;20299;-79
2021/04/06 02:45:14;;;;;;;2.72;1.00;;;3.00;1.00;;;;;;5053745;28;20226;-78
2021/04/06 02:47:45;;;;;;;1.08;0.93;;;2.80;1.00;;;;;;5048448;28;20217;-78
2021/04/06 02:50:14;;;;;;;1.33;0.93;;;2.90;1.00;;;;;;5050548;28;20287;-78
2021/04/06 02:52:42;;;;;;;2.75;1.10;;;2.70;1.00;;;;;;5048627;28;20712;-78
2021/04/06 02:55:11;;;;;;;1.00;0.90;;;2.80;1.00;;;;;;5052397;28;20215;-78
2021/04/06 02:57:42;;;;;;;2.03;1.33;;;3.00;1.00;;;;;;5054380;28;20221;-79
2021/04/06 03:00:29;;;;;;;1.15;0.95;;;2.60;1.00;;;;;;5057317;28;20216;-78
2021/04/06 03:02:59;;;;;;;1.67;1.00;;;2.60;1.00;;;;;;5048985;28;20229;-77
2021/04/06 03:05:30;;;;;;;2.55;1.10;;;2.30;1.00;;;;;;5060460;28;20212;-79
2021/04/06 03:07:58;;;;;;;4.80;1.02;;;2.60;1.00;;;;;;5058659;28;20219;-78
2021/04/06 03:10:26;;;;;;;1.33;1.20;;;2.30;1.00;;;;;;5056076;28;20239;-78
2021/04/06 03:12:53;;;;;;;1.73;1.08;;;2.20;1.00;;;;;;5046780;28;20236;-78
2021/04/06 03:15:23;;;;;;;3.88;1.10;;;1.90;1.00;;;;;;5058856;28;20217;-78
2021/04/06 03:17:52;;;;;;;1.30;1.20;;;2.00;1.00;;;;;;5050470;28;20867;-79
2021/04/06 03:20:20;;;;;;;2.60;1.20;;;2.20;1.00;;;;;;5058154;28;20212;-78
2021/04/06 03:22:47;;;;;;;2.47;1.20;;;2.40;1.00;;;;;;5044565;28;20236;-78
2021/04/06 03:25:15;;;;;;;1.85;1.00;;;2.10;1.00;;;;;;5056782;28;20621;-77
2021/04/06 03:27:43;;;;;;;4.50;1.45;;;2.00;1.00;;;;;;5045178;28;20223;-79
2021/04/06 03:30:12;;;;;;;1.40;1.02;;;2.30;1.00;;;;;;5051490;28;20216;-78
2021/04/06 03:32:41;;;;;;;1.90;0.95;;;2.20;1.00;;;;;;5055587;28;20251;-78
2021/04/06 03:35:09;;;;;;;2.47;1.13;;;2.10;1.00;;;;;;5060154;28;20233;-76
2021/04/06 03:37:37;;;;;;;3.25;1.00;;;2.10;1.00;;;;;;5052082;28;20217;-76
2021/04/06 03:40:05;;;;;;;3.70;1.30;;;2.10;1.00;;;;;;5055142;28;20223;-78
2021/04/06 03:42:32;;;;;;;2.75;1.27;;;2.30;1.00;;;;;;5054645;28;20239;-78
2021/04/06 03:45:07;;;;;;;3.08;1.00;;;2.40;1.00;;;;;;5052116;28;20298;-78
2021/04/06 03:47:55;;;;;;;2.70;1.20;;;2.30;1.00;;;;;;5053790;28;20217;-78
2021/04/06 03:50:38;;;;;;;1.23;0.98;;;2.20;1.00;;;;;;5051844;28;20217;-77
2021/04/06 03:53:07;;;;;;;1.35;1.25;;;1.90;1.00;;;;;;5050523;28;20248;-79
2021/04/06 03:55:34;;;;;;;2.17;1.40;;;1.80;1.00;;;;;;5050492;28;20714;-78
2021/04/06 03:58:07;;;;;;;2.85;1.10;;;1.80;1.00;;;;;;5056578;28;20239;-78
2021/04/06 04:00:35;;;;;;;1.33;1.23;;;1.70;1.00;;;;;;5045148;28;20231;-78
2021/04/06 04:03:03;;;;;;;3.08;1.20;;;1.70;1.00;;;;;;5060072;28;20238;-78
2021/04/06 04:05:30;;;;;;;2.45;1.27;;;1.80;1.00;;;;;;5057718;28;20214;-78
2021/04/06 04:07:57;;;;;;;2.47;1.45;;;1.80;1.00;;;;;;5053725;28;20220;-78
2021/04/06 04:10:25;;;;;;;2.92;1.30;;;1.70;1.00;;;;;;5053833;28;20213;-78
2021/04/06 04:12:53;;;;;;;3.78;1.33;;;1.90;1.00;;;;;;5050916;28;20236;-77
2021/04/06 04:15:21;;;;;;;1.30;1.20;;;1.90;1.00;;;;;;5043216;28;20996;-78
2021/04/06 04:17:49;;;;;;;1.40;1.30;;;1.90;1.00;;;;;;5050828;28;20215;-77
2021/04/06 04:20:20;;;;;;;1.80;1.20;;;2.10;1.00;;;;;;5054351;28;20211;-75
2021/04/06 04:22:49;;;;;;;4.20;1.65;;;2.40;1.00;;;;;;5049340;28;20235;-77
2021/04/06 04:25:17;;;;;;;2.28;1.50;;;2.20;1.00;;;;;;5045251;28;20745;-78
2021/04/06 04:27:45;;;;;;;1.77;1.20;;;2.40;1.00;;;;;;5050293;28;20243;-77
2021/04/06 04:30:14;;;;;;;8.93;1.70;;;2.50;1.00;;;;;;5053411;28;20216;-79
2021/04/06 04:32:41;;;;;;;2.90;1.60;;;2.50;1.00;;;;;;5053802;28;20734;-78
2021/04/06 04:35:09;;;;;;;1.60;1.30;;;2.20;1.00;;;;;;5054410;28;20307;-79
2021/04/06 04:37:38;;;;;;;2.05;1.27;;;2.20;1.00;;;;;;5055663;28;20575;-76
2021/04/06 04:40:07;;;;;;;1.58;1.40;;;2.30;1.00;;;;;;5050821;28;20925;-78
2021/04/06 04:42:35;;;;;;;2.15;1.35;;;2.60;1.00;;;;;;5040801;28;20749;-79
2021/04/06 04:45:07;;;;;;;2.20;1.40;;;2.70;1.00;;;;;;5047583;28;20214;-79
2021/04/06 04:47:35;;;;;;;8.13;2.55;;;2.50;1.00;;;;;;5058372;28;20292;-78
2021/04/06 04:50:02;;;;;;;2.70;1.55;;;2.60;1.00;;;;;;5047131;28;20211;-78
2021/04/06 04:52:30;;;;;;;2.25;1.23;;;2.90;1.00;;;;;;5050005;28;20240;-79
2021/04/06 04:54:58;;;;;;;2.88;1.63;;;2.90;1.00;;;;;;5051918;28;20224;-79
2021/04/06 04:57:25;;;;;;;2.47;1.65;;;2.90;1.00;;;;;;5050088;28;20987;-78
2021/04/06 04:59:52;;;;;;;3.83;1.42;;;3.00;1.00;;;;;;5054302;28;20232;-77
2021/04/06 05:02:19;;;;;;;3.63;1.15;;;2.70;1.00;;;;;;5054264;28;20232;-78
2021/04/06 05:04:46;;;;;;;5.38;1.60;;;2.50;1.00;;;;;;5044082;28;20208;-79
2021/04/06 05:07:14;;;;;;;2.28;1.33;;;2.50;1.00;;;;;;5044071;28;20226;-78
2021/04/06 05:09:41;;;;;;;3.92;1.40;;;2.40;1.00;;;;;;5052883;28;20701;-79
2021/04/06 05:12:09;;;;;;;2.08;1.10;;;2.50;1.00;;;;;;5059164;28;20658;-77
2021/04/06 05:14:37;;;;;;;2.72;1.45;;;2.40;1.00;;;;;;5051299;28;20231;-79
2021/04/06 05:17:04;;;;;;;1.85;1.00;;;2.40;1.00;;;;;;5055101;28;20230;-76
2021/04/06 05:19:32;;;;;;;5.28;1.23;;;2.60;1.00;;;;;;5055589;28;20645;-79
2021/04/06 05:21:59;;;;;;;5.57;1.52;;;2.60;1.00;;;;;;5061249;28;20899;-78
2021/04/06 05:24:26;;;;;;;3.90;1.30;;;2.40;1.00;;;;;;5058264;28;20212;-76
2021/04/06 05:26:53;;;;;;;1.98;1.42;;;2.30;1.00;;;;;;5050794;28;20587;-76
2021/04/06 05:29:21;;;;;;;2.05;1.20;;;2.30;1.00;;;;;;5048014;28;20215;-74
2021/04/06 05:31:48;;;;;;;1.98;1.25;;;2.30;1.00;;;;;;5050465;28;20250;-74
2021/04/06 05:34:16;;;;;;;4.40;1.42;;;2.10;1.00;;;;;;5047191;28;20212;-74
2021/04/06 05:36:43;;;;;;;3.33;1.40;;;2.10;1.00;;;;;;5047213;28;20228;-76
2021/04/06 05:39:11;;;;;;;6.13;1.30;;;2.30;1.00;;;;;;5055368;28;20647;-74
2021/04/06 05:41:43;;;;;;;3.35;1.50;;;2.60;1.00;;;;;;5048523;28;20531;-75
2021/04/06 05:44:11;;;;;;;2.13;1.30;;;2.50;1.00;;;;;;5043599;28;20222;-75
2021/04/06 05:46:42;;;;;;;2.65;1.30;;;2.60;1.00;;;;;;5043342;28;20211;-75
2021/04/06 05:49:11;;;;;;;1.63;1.42;;;2.80;1.00;;;;;;5059077;28;20229;-75
2021/04/06 05:51:39;;;;;;;2.15;1.13;;;2.80;1.00;;;;;;5061025;28;20240;-77
2021/04/06 05:54:07;;;;;;;1.40;1.30;;;2.70;1.00;;;;;;5059792;28;20216;-76
2021/04/06 05:56:34;;;;;;;2.95;1.25;;;2.40;1.00;;;;;;5039821;28;20670;-76
2021/04/06 05:59:02;;;;;;;4.95;2.13;;;2.40;1.00;;;;;;5044503;28;20227;-75
2021/04/06 06:01:30;;;;;;;2.72;1.50;;;2.40;1.00;;;;;;5045853;28;20747;-74
2021/04/06 06:03:59;;;;;;;3.15;1.30;;;2.50;1.00;;;;;;5048711;28;20645;-73
2021/04/06 06:06:26;;;;;;;1.67;1.20;;;2.50;1.00;;;;;;5047104;28;20276;-75
2021/04/06 06:08:58;;;;;;;6.72;1.35;;;2.60;1.00;;;;;;5055263;28;20382;-74
2021/04/06 06:11:26;;;;;;;3.33;1.50;;;2.80;1.00;;;;;;5058773;28;20240;-76
2021/04/06 06:13:53;;;;;;;3.72;1.90;;;2.70;1.00;;;;;;5045203;28;20228;-72
2021/04/06 06:16:24;;;;;;;2.35;1.30;;;2.70;1.00;;;;;;5043988;28;20213;-73
2021/04/06 06:18:53;;;;;;;4.35;1.25;;;2.90;1.00;;;;;;5047895;28;20233;-74
2021/04/06 06:21:22;;;;;;;3.63;1.33;;;3.00;1.00;;;;;;5048040;28;20239;-74
2021/04/06 06:23:50;;;;;;;3.55;1.55;;;2.90;1.00;;;;;;5054083;28;20220;-75
2021/04/06 06:26:19;;;;;;;2.83;1.35;;;2.90;1.00;;;;;;5053985;28;20222;-75
2021/04/06 06:29:09;;;;;;;3.33;1.40;;;3.00;1.00;;;;;;5044008;28;20685;-74
2021/04/06 06:31:41;;;;;;;2.95;1.30;;;3.20;1.00;;;;;;5043954;28;21143;-74
2021/04/06 06:34:40;;;;;;;2.60;1.83;;;3.20;1.00;;;;;;5043564;28;20200;-75
2021/04/06 06:37:16;;;;;;;2.75;1.00;;;3.40;1.00;;;;;;5044964;28;20453;-74
2021/04/06 06:39:58;;;;;;;3.83;1.45;;;3.20;1.00;;;;;;5051833;28;20566;-75
2021/04/06 06:42:29;;;;;;;4.80;1.30;;;2.90;1.00;;;;;;5056421;28;21078;-73
2021/04/06 06:44:57;;;;;;;3.40;1.75;;;2.80;1.00;;;;;;5045938;28;20214;-73
2021/04/06 06:47:26;;;;;;;3.95;1.30;;;2.80;1.00;;;;;;5045228;28;20232;-75
2021/04/06 06:49:55;;;;;;;1.60;1.30;;;2.90;1.00;;;;;;5042459;28;20210;-76
2021/04/06 06:52:33;;;;;;;5.03;1.42;;;3.10;1.00;;;;;;5060625;28;20815;-74
2021/04/06 06:55:17;;;;;;;3.58;1.58;;;3.10;1.00;;;;;;5050176;28;20217;-77
2021/04/06 06:57:45;;;;;;;4.53;1.88;;;3.20;1.00;;;;;;5048902;28;20413;-74
2021/04/06 07:00:15;;;;;;;3.63;1.73;;;3.00;1.00;;;;;;5048801;28;20268;-74
2021/04/06 07:02:43;;;;;;;4.13;1.40;;;3.00;1.00;;;;;;5041121;28;20324;-75
2021/04/06 07:05:19;;;;;;;3.30;1.20;;;3.00;1.00;;;;;;5049711;28;20225;-76
2021/04/06 07:07:56;;;;;;;2.88;1.27;;;3.20;1.00;;;;;;5045899;28;20207;-76
2021/04/06 07:10:27;;;;;;;3.80;1.40;;;3.20;1.00;;;;;;5058311;28;20221;-75
2021/04/06 07:13:11;;;;;;;4.15;1.23;;;3.30;1.00;;;;;;5044248;28;20228;-77
2021/04/06 07:15:44;;;;;;;4.03;1.35;;;3.70;1.00;;;;;;5048777;28;20228;-76
2021/04/06 07:18:14;;;;;;;2.85;1.40;;;3.80;1.00;;;;;;5049919;28;20259;-76
2021/04/06 07:20:43;;;;;;;5.43;2.05;;;3.70;1.00;;;;;;5053130;28;20736;-76
2021/04/06 07:23:18;;;;;;;2.75;1.48;;;3.80;1.00;;;;;;5049783;28;20322;-77
2021/04/06 07:25:46;;;;;;;2.95;1.85;;;3.80;1.00;;;;;;5052077;28;20212;-78
2021/04/06 07:28:17;;;;;;;4.10;1.90;;;3.70;1.00;;;;;;5056168;28;20646;-79
2021/04/06 07:30:45;;;;;;;4.13;1.40;;;4.30;1.00;;;;;;5044313;28;20221;-78
2021/04/06 07:33:15;;;;;;;3.40;1.40;;;4.60;1.00;;;;;;5048114;28;20242;-77
2021/04/06 07:35:43;;;;;;;3.28;1.17;;;4.70;1.00;;;;;;5052566;28;20214;-78
2021/04/06 07:38:12;;;;;;;3.95;1.25;;;4.90;1.00;;;;;;5055682;28;20211;-80
2021/04/06 07:40:41;;;;;;;5.80;1.40;;;4.90;1.00;;;;;;5050567;28;20783;-81
2021/04/06 07:43:08;;;;;;;3.80;1.67;;;5.10;1.00;;;;;;5051063;28;20253;-81
2021/04/06 07:45:39;;;;;;;1.85;1.23;;;5.40;1.00;;;;;;5050794;28;20524;-79
2021/04/06 07:48:07;;;;;;;1.92;1.63;;;5.50;1.00;;;;;;5047542;28;20289;-83
2021/04/06 07:50:37;;;;;;;4.20;1.50;;;5.70;1.00;;;;;;5052152;28;20273;-79
2021/04/06 07:53:28;;;;;;;4.63;2.23;;;5.30;1.00;;;;;;5050520;28;20224;-77
2021/04/06 07:55:59;;;;;;;3.23;1.40;;;5.60;1.00;;;;;;5043063;28;20477;-78
2021/04/06 07:58:46;;;;;;;5.80;1.60;;;5.70;1.00;;;;;;5050087;28;20916;-78
2021/04/06 08:01:17;;;;;;;3.20;1.30;;;5.90;1.00;;;;;;5044527;28;20499;-78
2021/04/06 08:04:01;;;;;;;7.20;1.63;;;6.10;1.00;;;;;;5049149;28;20478;-79
2021/04/06 08:06:39;;;;;;;1.80;1.20;;;5.90;1.00;;;;;;5051926;28;20458;-77
2021/04/06 08:09:37;;;;;;;2.87;1.33;;;5.80;1.00;;;;;;5051385;28;20457;-79
2021/04/06 08:12:07;;;;;;;4.73;1.90;;;6.10;1.00;;;;;;5043807;28;21296;-79
2021/04/06 08:14:36;;;;;;;2.93;1.70;;;6.30;1.00;;;;;;5053809;28;20573;-79
2021/04/06 08:17:38;;;;;;;6.57;2.97;;;6.40;1.00;;;;;;5046145;28;20461;-78
2021/04/06 08:20:08;;;;;;;4.30;1.50;;;6.40;1.00;;;;;;5046362;28;20587;-78
2021/04/06 08:22:46;;;;;;;2.10;1.90;;;6.30;1.00;;;;;;5044243;28;20491;-77
2021/04/06 08:25:52;;;;;;;3.00;1.30;;;6.20;1.00;;;;;;5050339;28;20445;-78
2021/04/06 08:28:29;;;;;;;2.30;1.20;;;6.00;1.00;;;;;;4999157;28;20984;-80
2021/04/06 08:31:18;;;;;;;2.87;1.23;;;6.10;1.00;;;;;;5003778;28;20477;-79
2021/04/06 08:33:46;;;;;;;5.47;1.47;;;6.10;1.00;;;;;;5034319;28;20471;-79
2021/04/06 08:36:25;;;;;;;4.87;1.30;;;6.00;1.00;;;;;;5044788;28;20477;-78
2021/04/06 08:38:55;;;;;;;2.00;1.20;;;6.00;1.00;;;;;;5050551;28;20491;-79
2021/04/06 08:41:34;;;;;;;2.53;1.23;;;6.00;1.00;;;;;;5040419;28;20491;-78
2021/04/06 08:44:06;;;;;;;3.93;1.30;;;6.10;1.00;;;;;;5045807;28;20459;-79
2021/04/06 08:46:50;;;;;;;3.30;1.40;;;6.10;1.00;;;;;;5057151;28;20460;-79
2021/04/06 08:49:23;;;;;;;3.83;1.60;;;6.20;1.00;;;;;;5052568;28;20574;-79
2021/04/06 08:51:53;;;;;;;3.40;1.57;;;6.20;1.00;;;;;;5050967;28;20469;-79
2021/04/06 08:54:22;;;;;;;3.23;1.30;;;6.30;1.00;;;;;;5049013;28;20483;-77
2021/04/06 08:56:52;;;;;;;4.30;1.20;;;6.20;1.00;;;;;;5045604;28;20460;-78
2021/04/06 08:59:24;;;;;;;4.37;1.30;;;6.20;1.00;;;;;;5045913;28;20479;-78
2021/04/06 09:01:55;;;;;;;3.23;1.07;;;6.10;1.00;;;;;;5050486;28;20489;-78
2021/04/06 09:04:25;;;;;;;3.40;1.77;;;6.10;1.00;;;;;;5049830;28;20956;-78
2021/04/06 09:06:52;;;;;;;3.47;1.50;;;6.10;1.00;;;;;;5051182;28;20466;-79
2021/04/06 09:09:21;;;;;;;6.10;1.50;;;6.10;1.00;;;;;;5053974;28;20466;-78
2021/04/06 09:11:49;;;;;;;4.00;1.37;;;6.10;1.00;;;;;;5054358;28;20559;-79
2021/04/06 09:14:17;;;;;;;4.03;1.20;;;6.20;1.00;;;;;;5053808;28;20501;-78
2021/04/06 09:16:45;;;;;;;2.03;1.23;;;6.10;1.00;;;;;;5056316;28;21352;-77
2021/04/06 09:19:14;;;;;;;1.60;1.17;;;6.10;1.00;;;;;;5065535;28;20484;-77
2021/04/06 09:21:44;;;;;;;3.60;1.30;;;6.10;1.00;;;;;;5047105;28;20489;-81
2021/04/06 09:24:13;;;;;;;2.53;1.13;;;6.20;1.00;;;;;;5042415;28;20999;-79
2021/04/06 09:26:42;;;;;;;2.57;1.50;;;6.10;1.00;;;;;;5054641;28;20466;-80
2021/04/06 09:29:12;;;;;;;1.53;1.00;;;6.00;1.00;;;;;;5052850;28;20450;-79
2021/04/06 09:31:42;;;;;;;1.77;1.00;;;6.20;1.00;;;;;;5049733;28;20500;-79
2021/04/06 09:34:15;;;;;;;3.73;1.00;;;6.30;1.00;;;;;;5059840;28;20526;-79
2021/04/06 09:36:44;;;;;;;2.60;1.13;;;6.40;1.00;;;;;;5051096;28;20474;-78
2021/04/06 09:39:13;;;;;;;1.57;1.20;;;6.50;1.00;;;;;;5051716;28;21014;-79
2021/04/06 09:41:42;;;;;;;0.80;0.80;;;6.60;1.00;;;;;;5046976;28;20486;-78
2021/04/06 09:44:12;;;;;;;2.80;1.10;;;6.50;1.00;;;;;;5048245;28;20469;-79
2021/04/06 09:46:42;;;;;;;2.80;1.10;;;6.30;1.00;;;;;;5048685;28;20473;-78
2021/04/06 09:49:11;;;;;;;1.50;1.00;;;6.40;1.00;;;;;;5049849;28;20480;-78
2021/04/06 09:52:01;;;;;;;2.40;1.10;;;6.50;1.00;;;;;;5054994;28;20476;-78
2021/04/06 09:54:32;;;;;;;1.87;1.00;;;6.50;1.00;;;;;;5047547;28;20457;-78
2021/04/06 09:57:03;;;;;;;3.07;1.10;;;6.70;1.00;;;;;;5050077;28;21005;-80
2021/04/06 09:59:30;;;;;;;4.60;1.17;;;6.90;1.00;;;;;;5053934;28;20505;-78
2021/04/06 10:02:00;;;;;;;1.20;1.10;;;6.70;1.00;;;;;;5045295;28;20495;-77
2021/04/06 10:04:36;;;;;;;3.60;0.90;;;6.80;1.00;;;;;;5042031;28;20951;-79
2021/04/06 10:07:12;;;;;;;2.30;1.27;;;6.60;1.00;;;;;;5043650;28;20476;-79
2021/04/06 10:09:41;;;;;;;3.07;1.33;;;6.60;1.00;;;;;;5044539;28;20464;-76
2021/04/06 10:12:10;;;;;;;1.40;1.00;;;6.70;1.00;;;;;;5052989;28;20564;-77
2021/04/06 10:14:38;;;;;;;1.83;1.00;;;6.70;1.00;;;;;;5053509;28;20454;-78
2021/04/06 10:17:09;;;;;;;3.60;1.10;;;6.70;1.00;;;;;;5056541;28;20986;-78
2021/04/06 10:19:39;;;;;;;2.10;0.90;;;6.90;1.00;;;;;;5052889;28;20465;-78
2021/04/06 10:22:11;;;;;;;4.20;1.20;;;6.90;1.00;;;;;;5042061;28;20492;-78
2021/04/06 10:24:41;;;;;;;3.40;1.00;;;7.00;1.00;;;;;;5053550;28;20466;-81
2021/04/06 10:27:16;;;;;;;1.50;1.00;;;7.10;1.00;;;;;;5059464;28;20463;-79
2021/04/06 10:29:43;;;;;;;3.10;1.10;;;7.20;1.00;;;;;;5049494;28;20464;-79
2021/04/06 10:32:29;;;;;;;1.70;1.10;;;7.30;1.00;;;;;;5050796;28;20492;-77
2021/04/06 10:35:03;;;;;;;1.67;0.83;;;7.40;1.00;;;;;;5026915;28;628201;-79
2021/04/06 10:37:47;;;;;;;2.70;0.80;;;7.40;1.00;;;;;;5053012;28;20722;-80
2021/04/06 10:40:34;;;;;;;2.08;1.20;;;7.50;1.00;;;;;;5052770;28;20541;-79
2021/04/06 10:43:05;;;;;;;4.57;1.13;;;7.40;1.00;;;;;;5056969;28;20882;-80
2021/04/06 10:45:34;;;;;;;4.10;1.03;;;7.50;1.00;;;;;;5057320;28;20463;-79
2021/04/06 10:48:06;;;;;;;0.97;0.90;;;7.30;1.00;;;;;;5062127;28;20459;-80
2021/04/06 10:50:35;;;;;;;4.60;2.10;;;7.30;1.00;;;;;;5052186;28;20542;-79
2021/04/06 10:53:15;;;;;;;1.80;1.43;;;7.40;1.00;;;;;;5047853;28;20495;-78
2021/04/06 10:55:43;;;;;;;2.57;1.47;;;7.50;1.00;;;;;;5048174;28;21103;-80
2021/04/06 10:58:10;;;;;;;3.13;1.63;;;7.50;1.00;;;;;;5055842;28;20480;-79
2021/04/06 11:00:39;;;;;;;7.70;2.50;;;7.40;1.00;;;;;;5055939;28;20517;-81
2021/04/06 11:03:11;;;;;;;5.23;1.40;;;7.40;1.00;;;;;;5053087;28;20484;-81
2021/04/06 11:05:39;;;;;;;3.43;1.30;;;7.60;1.00;;;;;;5049163;28;20459;-79
2021/04/06 11:08:22;;;;;;;6.20;1.63;;;7.90;1.00;;;;;;5047035;28;20471;-80
2021/04/06 11:10:50;;;;;;;2.97;1.40;;;7.90;1.00;;;;;;5049727;28;20460;-80
2021/04/06 11:13:18;;;;;;;2.53;1.20;;;8.00;1.00;;;;;;5051024;28;20880;-79
2021/04/06 11:15:46;;;;;;;3.67;1.23;;;7.90;1.00;;;;;;5054665;28;20482;-80
2021/04/06 11:18:13;;;;;;;3.10;1.20;;;7.80;1.00;;;;;;5049357;28;20469;-80
2021/04/06 11:20:41;;;;;;;3.13;1.10;;;7.90;1.00;;;;;;5055494;28;21005;-80
2021/04/06 11:23:09;;;;;;;1.10;1.00;;;7.80;1.00;;;;;;5053841;28;20515;-79
2021/04/06 11:25:37;;;;;;;2.73;1.73;;;7.70;1.00;;;;;;5046625;28;20475;-77
2021/04/06 11:28:05;;;;;;;2.27;1.10;;;7.50;1.00;;;;;;5051838;28;20461;-78
2021/04/06 11:30:35;;;;;;;1.90;1.13;;;7.50;1.00;;;;;;5044286;28;20531;-79
2021/04/06 11:33:05;;;;;;;6.20;1.53;;;7.50;1.00;;;;;;5041049;28;20492;-78
2021/04/06 11:35:34;;;;;;;1.33;1.10;;;7.70;1.00;;;;;;5058649;28;20464;-78
2021/04/06 11:38:02;;;;;;;2.97;1.10;;;7.70;1.00;;;;;;5056743;28;20469;-78
2021/04/06 11:40:29;;;;;;;1.73;1.40;;;7.60;1.00;;;;;;5052357;28;20477;-78
2021/04/06 11:42:57;;;;;;;1.83;1.00;;;7.60;1.00;;;;;;5049902;28;20490;-78
2021/04/06 11:45:24;;;;;;;3.83;1.70;;;7.60;1.00;;;;;;5043421;28;20492;-78
2021/04/06 11:47:53;;;;;;;1.33;1.20;;;7.60;1.00;;;;;;5047616;28;20463;-78
2021/04/06 11:50:21;;;;;;;5.83;1.30;;;7.60;1.00;;;;;;5044936;28;20459;-79
2021/04/06 11:52:50;;;;;;;2.83;1.33;;;7.70;1.00;;;;;;5043294;28;20477;-78
2021/04/06 11:55:18;;;;;;;3.70;1.47;;;7.80;1.00;;;;;;5045857;28;20475;-79
2021/04/06 11:57:46;;;;;;;4.20;1.20;;;7.80;1.00;;;;;;5053742;28;20472;-78
2021/04/06 12:00:17;;;;;;;2.50;1.33;;;7.70;1.00;;;;;;5049748;28;20583;-77
2021/04/06 12:02:44;;;;;;;2.60;1.33;;;7.70;1.00;;;;;;5045907;28;20490;-78
2021/04/06 12:05:12;;;;;;;4.17;1.30;;;7.80;1.00;;;;;;5049443;28;21061;-77
2021/04/06 12:07:40;;;;;;;3.87;1.20;;;7.90;1.00;;;;;;5054799;28;21131;-79
2021/04/06 12:10:09;;;;;;;5.03;0.90;;;7.90;1.00;;;;;;5043724;28;20471;-79
2021/04/06 12:12:37;;;;;;;2.00;1.10;;;7.90;1.00;;;;;;5046695;28;20492;-77
2021/04/06 12:15:05;;;;;;;2.17;1.00;;;7.80;1.00;;;;;;5045359;28;20479;-79
2021/04/06 12:17:33;;;;;;;3.70;1.40;;;7.90;1.00;;;;;;5047469;28;20468;-78
2021/04/06 12:20:00;;;;;;;1.10;1.00;;;8.00;1.00;;;;;;5042892;28;20932;-76
2021/04/06 12:22:28;;;;;;;3.40;1.10;;;7.80;1.00;;;;;;5045230;28;20493;-76
2021/04/06 12:24:55;;;;;;;2.20;1.30;;;7.70;1.00;;;;;;5045405;28;20687;-78
2021/04/06 12:27:22;;;;;;;1.90;1.00;;;7.90;1.00;;;;;;5053475;28;20414;-79
2021/04/06 12:29:50;;;;;;;2.73;1.00;;;8.10;1.00;;;;;;5047338;28;20466;-78
2021/04/06 12:32:17;;;;;;;1.37;1.03;;;8.10;1.00;;;;;;5045790;28;21069;-78
2021/04/06 12:34:46;;;;;;;1.40;1.10;;;7.90;1.00;;;;;;5045466;28;20468;-77
2021/04/06 12:37:13;;;;;;;2.50;1.40;;;7.90;1.00;;;;;;5046940;28;20480;-77
2021/04/06 12:40:01;;;;;;;3.27;1.93;;;8.10;1.00;;;;;;5039361;28;21605;-78
2021/04/06 12:42:29;;;;;;;2.90;1.57;;;8.20;1.00;;;;;;5044036;28;20989;-78
2021/04/06 12:44:56;;;;;;;1.63;1.10;;;8.20;1.00;;;;;;5043591;28;20823;-77
2021/04/06 12:47:23;;;;;;;7.30;1.10;;;8.30;1.00;;;;;;5044616;28;20551;-77
2021/04/06 12:49:51;;;;;;;1.73;1.63;;;8.40;1.00;;;;;;5050537;28;20463;-77
2021/04/06 12:52:19;;;;;;;1.23;1.00;;;8.40;1.00;;;;;;5045203;28;20732;-79
2021/04/06 12:54:46;;;;;;;4.33;0.90;;;8.30;1.00;;;;;;5044727;28;20461;-77
2021/04/06 12:57:13;;;;;;;1.57;0.90;;;8.40;1.00;;;;;;5047470;28;20968;-78
2021/04/06 12:59:41;;;;;;;1.17;0.97;;;8.30;1.00;;;;;;5047277;28;20497;-77
2021/04/06 13:02:09;;;;;;;1.43;0.90;;;8.40;1.00;;;;;;5045238;28;20494;-75
2021/04/06 13:04:36;;;;;;;1.00;0.87;;;8.50;1.00;;;;;;5043558;28;20722;-76
2021/04/06 13:07:04;;;;;;;1.60;0.90;;;8.40;1.00;;;;;;5045917;28;20525;-76
2021/04/06 13:09:31;;;;;;;1.20;0.80;;;8.40;1.00;;;;;;5043343;28;20522;-77
2021/04/06 13:11:58;;;;;;;0.80;0.80;;;8.40;1.00;;;;;;5049142;28;21042;-76
2021/04/06 13:14:26;;;;;;;1.27;0.90;;;8.50;1.00;;;;;;5043102;28;20802;-76
2021/04/06 13:16:54;;;;;;;2.00;1.47;;;8.70;1.00;;;;;;5048407;28;20560;-76
2021/04/06 13:19:21;;;;;;;1.27;0.80;;;8.60;1.00;;;;;;5056626;28;20464;-76
2021/04/06 13:21:48;;;;;;;0.90;0.80;;;8.70;1.00;;;;;;5042321;28;21296;-77
2021/04/06 13:24:17;;;;;;;1.40;1.00;;;8.80;1.00;;;;;;5044515;28;20459;-77
2021/04/06 13:26:45;;;;;;;1.87;0.80;;;8.60;1.00;;;;;;5051989;28;20208;-76